sensor_id;sensor_type;location;lat;lon;timestamp;P1;durP1;ratioP1;P2;durP2;ratioP2
21837;SDS011;11081;45.946;6.140;2024-01-15T00:02:22;23.60;;;12.90;;
21837;SDS011;11081;45.946;6.140;2024-01-15T00:04:50;17.00;;;9.50;;
21837;SDS011;11081;45.946;6.140;2024-01-15T00:07:20;15.17;;;9.50;;
21837;SDS011;11081;45.946;6.140;2024-01-15T00:09:48;16.50;;;10.67;;
21837;SDS011;11081;45.946;6.140;2024-01-15T00:12:16;18.93;;;11.57;;
21837;SDS011;11081;45.946;6.140;2024-01-15T00:14:44;26.27;;;16.70;;
21837;SDS011;11081;45.946;6.140;2024-01-15T00:17:12;27.10;;;17.57;;
21837;SDS011;11081;45.946;6.140;2024-01-15T00:19:40;29.70;;;18.73;;
21837;SDS011;11081;45.946;6.140;2024-01-15T00:22:08;31.37;;;21.23;;
21837;SDS011;11081;45.946;6.140;2024-01-15T00:24:38;33.50;;;18.17;;
21837;SDS011;11081;45.946;6.140;2024-01-15T00:27:06;27.20;;;16.17;;
21837;SDS011;11081;45.946;6.140;2024-01-15T00:29:34;26.87;;;16.93;;
21837;SDS011;11081;45.946;6.140;2024-01-15T00:32:02;23.17;;;14.60;;
21837;SDS011;11081;45.946;6.140;2024-01-15T00:34:30;26.13;;;16.10;;
21837;SDS011;11081;45.946;6.140;2024-01-15T00:36:58;23.50;;;14.83;;
21837;SDS011;11081;45.946;6.140;2024-01-15T00:39:26;25.90;;;14.67;;
21837;SDS011;11081;45.946;6.140;2024-01-15T00:41:56;25.03;;;15.43;;
21837;SDS011;11081;45.946;6.140;2024-01-15T00:44:23;22.67;;;15.77;;
21837;SDS011;11081;45.946;6.140;2024-01-15T00:46:51;23.47;;;14.50;;
21837;SDS011;11081;45.946;6.140;2024-01-15T00:49:19;27.70;;;16.57;;
21837;SDS011;11081;45.946;6.140;2024-01-15T00:51:47;32.63;;;18.07;;
21837;SDS011;11081;45.946;6.140;2024-01-15T00:54:15;26.87;;;15.97;;
21837;SDS011;11081;45.946;6.140;2024-01-15T00:56:43;25.23;;;15.37;;
21837;SDS011;11081;45.946;6.140;2024-01-15T00:59:13;22.23;;;14.90;;
21837;SDS011;11081;45.946;6.140;2024-01-15T01:01:42;27.07;;;15.87;;
21837;SDS011;11081;45.946;6.140;2024-01-15T01:04:12;25.57;;;15.10;;
21837;SDS011;11081;45.946;6.140;2024-01-15T01:06:40;25.70;;;15.43;;
21837;SDS011;11081;45.946;6.140;2024-01-15T01:09:08;30.70;;;17.87;;
21837;SDS011;11081;45.946;6.140;2024-01-15T01:11:36;27.83;;;16.47;;
21837;SDS011;11081;45.946;6.140;2024-01-15T01:14:04;29.63;;;17.20;;
21837;SDS011;11081;45.946;6.140;2024-01-15T01:16:34;32.50;;;18.63;;
21837;SDS011;11081;45.946;6.140;2024-01-15T01:19:05;34.23;;;19.47;;
21837;SDS011;11081;45.946;6.140;2024-01-15T01:21:34;40.13;;;21.77;;
21837;SDS011;11081;45.946;6.140;2024-01-15T01:24:03;34.43;;;21.63;;
21837;SDS011;11081;45.946;6.140;2024-01-15T01:26:31;34.73;;;20.67;;
21837;SDS011;11081;45.946;6.140;2024-01-15T01:28:59;35.23;;;20.63;;
21837;SDS011;11081;45.946;6.140;2024-01-15T01:31:27;28.30;;;17.37;;
21837;SDS011;11081;45.946;6.140;2024-01-15T01:33:56;29.70;;;17.77;;
21837;SDS011;11081;45.946;6.140;2024-01-15T01:36:24;24.87;;;15.50;;
21837;SDS011;11081;45.946;6.140;2024-01-15T01:38:52;26.97;;;15.47;;
21837;SDS011;11081;45.946;6.140;2024-01-15T01:41:20;22.13;;;15.10;;
21837;SDS011;11081;45.946;6.140;2024-01-15T01:43:50;23.27;;;14.57;;
21837;SDS011;11081;45.946;6.140;2024-01-15T01:46:18;21.27;;;12.80;;
21837;SDS011;11081;45.946;6.140;2024-01-15T01:48:46;24.03;;;14.30;;
21837;SDS011;11081;45.946;6.140;2024-01-15T01:51:16;20.63;;;13.13;;
21837;SDS011;11081;45.946;6.140;2024-01-15T01:53:44;18.90;;;12.67;;
21837;SDS011;11081;45.946;6.140;2024-01-15T01:56:13;22.90;;;13.77;;
21837;SDS011;11081;45.946;6.140;2024-01-15T01:58:42;18.07;;;11.43;;
21837;SDS011;11081;45.946;6.140;2024-01-15T02:01:10;21.83;;;13.43;;
21837;SDS011;11081;45.946;6.140;2024-01-15T02:03:40;22.67;;;13.93;;
21837;SDS011;11081;45.946;6.140;2024-01-15T02:06:08;21.00;;;12.63;;
21837;SDS011;11081;45.946;6.140;2024-01-15T02:08:38;22.97;;;12.50;;
21837;SDS011;11081;45.946;6.140;2024-01-15T02:11:06;20.63;;;11.23;;
21837;SDS011;11081;45.946;6.140;2024-01-15T02:13:34;18.87;;;12.33;;
21837;SDS011;11081;45.946;6.140;2024-01-15T02:16:02;19.97;;;12.10;;
21837;SDS011;11081;45.946;6.140;2024-01-15T02:18:38;21.07;;;12.50;;
21837;SDS011;11081;45.946;6.140;2024-01-15T02:21:08;19.97;;;11.10;;
21837;SDS011;11081;45.946;6.140;2024-01-15T02:23:38;19.23;;;10.90;;
21837;SDS011;11081;45.946;6.140;2024-01-15T02:26:06;15.03;;;9.30;;
21837;SDS011;11081;45.946;6.140;2024-01-15T02:28:35;16.07;;;8.60;;
21837;SDS011;11081;45.946;6.140;2024-01-15T02:31:03;10.10;;;7.13;;
21837;SDS011;11081;45.946;6.140;2024-01-15T02:33:31;9.63;;;6.13;;
21837;SDS011;11081;45.946;6.140;2024-01-15T02:35:59;8.90;;;5.73;;
21837;SDS011;11081;45.946;6.140;2024-01-15T02:38:27;12.17;;;5.57;;
21837;SDS011;11081;45.946;6.140;2024-01-15T02:40:57;8.93;;;4.37;;
21837;SDS011;11081;45.946;6.140;2024-01-15T02:43:24;10.10;;;5.27;;
21837;SDS011;11081;45.946;6.140;2024-01-15T02:45:52;7.50;;;4.63;;
21837;SDS011;11081;45.946;6.140;2024-01-15T02:48:20;7.77;;;4.40;;
21837;SDS011;11081;45.946;6.140;2024-01-15T02:50:48;5.13;;;3.70;;
21837;SDS011;11081;45.946;6.140;2024-01-15T02:53:16;5.67;;;3.10;;
21837;SDS011;11081;45.946;6.140;2024-01-15T02:55:44;5.10;;;3.20;;
21837;SDS011;11081;45.946;6.140;2024-01-15T02:58:14;4.77;;;2.87;;
21837;SDS011;11081;45.946;6.140;2024-01-15T03:00:42;6.63;;;2.77;;
21837;SDS011;11081;45.946;6.140;2024-01-15T03:03:10;3.83;;;2.50;;
21837;SDS011;11081;45.946;6.140;2024-01-15T03:05:38;3.70;;;2.23;;
21837;SDS011;11081;45.946;6.140;2024-01-15T03:08:06;5.13;;;2.23;;
21837;SDS011;11081;45.946;6.140;2024-01-15T03:10:34;2.40;;;1.87;;
21837;SDS011;11081;45.946;6.140;2024-01-15T03:13:02;4.23;;;2.00;;
21837;SDS011;11081;45.946;6.140;2024-01-15T03:15:32;3.40;;;2.07;;
21837;SDS011;11081;45.946;6.140;2024-01-15T03:18:00;3.03;;;1.93;;
21837;SDS011;11081;45.946;6.140;2024-01-15T03:20:28;3.60;;;1.87;;
21837;SDS011;11081;45.946;6.140;2024-01-15T03:22:56;2.83;;;1.80;;
21837;SDS011;11081;45.946;6.140;2024-01-15T03:25:23;7.30;;;2.87;;
21837;SDS011;11081;45.946;6.140;2024-01-15T03:27:51;5.63;;;2.97;;
21837;SDS011;11081;45.946;6.140;2024-01-15T03:30:19;6.50;;;3.53;;
21837;SDS011;11081;45.946;6.140;2024-01-15T03:32:49;4.97;;;2.20;;
21837;SDS011;11081;45.946;6.140;2024-01-15T03:35:17;4.43;;;3.10;;
21837;SDS011;11081;45.946;6.140;2024-01-15T03:37:45;7.70;;;3.13;;
21837;SDS011;11081;45.946;6.140;2024-01-15T03:40:13;7.13;;;4.40;;
21837;SDS011;11081;45.946;6.140;2024-01-15T03:42:45;9.53;;;5.63;;
21837;SDS011;11081;45.946;6.140;2024-01-15T03:45:13;6.80;;;4.00;;
21837;SDS011;11081;45.946;6.140;2024-01-15T03:47:41;9.27;;;6.00;;
21837;SDS011;11081;45.946;6.140;2024-01-15T03:50:11;10.50;;;5.70;;
21837;SDS011;11081;45.946;6.140;2024-01-15T03:52:39;9.00;;;5.73;;
21837;SDS011;11081;45.946;6.140;2024-01-15T03:55:07;4.93;;;2.67;;
21837;SDS011;11081;45.946;6.140;2024-01-15T03:57:35;3.60;;;2.47;;
21837;SDS011;11081;45.946;6.140;2024-01-15T04:00:03;4.67;;;2.70;;
21837;SDS011;11081;45.946;6.140;2024-01-15T04:02:33;3.80;;;2.67;;
21837;SDS011;11081;45.946;6.140;2024-01-15T04:05:01;9.93;;;2.83;;
21837;SDS011;11081;45.946;6.140;2024-01-15T04:07:30;4.13;;;2.43;;
21837;SDS011;11081;45.946;6.140;2024-01-15T04:09:58;4.43;;;2.90;;
21837;SDS011;11081;45.946;6.140;2024-01-15T04:12:26;5.00;;;2.40;;
21837;SDS011;11081;45.946;6.140;2024-01-15T04:14:54;5.03;;;3.07;;
21837;SDS011;11081;45.946;6.140;2024-01-15T04:17:22;6.23;;;3.10;;
21837;SDS011;11081;45.946;6.140;2024-01-15T04:19:50;5.00;;;3.40;;
21837;SDS011;11081;45.946;6.140;2024-01-15T04:22:18;7.07;;;4.43;;
21837;SDS011;11081;45.946;6.140;2024-01-15T04:24:47;6.73;;;4.20;;
21837;SDS011;11081;45.946;6.140;2024-01-15T04:27:15;8.13;;;3.73;;
21837;SDS011;11081;45.946;6.140;2024-01-15T04:29:44;5.83;;;3.67;;
21837;SDS011;11081;45.946;6.140;2024-01-15T04:32:12;7.40;;;4.07;;
21837;SDS011;11081;45.946;6.140;2024-01-15T04:34:39;6.60;;;3.90;;
21837;SDS011;11081;45.946;6.140;2024-01-15T04:37:07;7.47;;;3.90;;
21837;SDS011;11081;45.946;6.140;2024-01-15T04:39:35;9.23;;;4.80;;
21837;SDS011;11081;45.946;6.140;2024-01-15T04:42:05;6.17;;;3.97;;
21837;SDS011;11081;45.946;6.140;2024-01-15T04:44:33;8.53;;;4.50;;
21837;SDS011;11081;45.946;6.140;2024-01-15T04:47:01;5.53;;;3.97;;
21837;SDS011;11081;45.946;6.140;2024-01-15T04:49:29;5.20;;;3.70;;
21837;SDS011;11081;45.946;6.140;2024-01-15T04:51:58;7.37;;;4.13;;
21837;SDS011;11081;45.946;6.140;2024-01-15T04:54:26;7.37;;;4.00;;
21837;SDS011;11081;45.946;6.140;2024-01-15T04:56:54;7.50;;;4.53;;
21837;SDS011;11081;45.946;6.140;2024-01-15T04:59:23;7.43;;;4.30;;
21837;SDS011;11081;45.946;6.140;2024-01-15T05:01:51;8.53;;;5.17;;
21837;SDS011;11081;45.946;6.140;2024-01-15T05:04:19;7.87;;;5.20;;
21837;SDS011;11081;45.946;6.140;2024-01-15T05:06:47;9.67;;;5.50;;
21837;SDS011;11081;45.946;6.140;2024-01-15T05:09:15;14.67;;;5.57;;
21837;SDS011;11081;45.946;6.140;2024-01-15T05:11:44;11.73;;;6.27;;
21837;SDS011;11081;45.946;6.140;2024-01-15T05:14:12;10.93;;;5.80;;
21837;SDS011;11081;45.946;6.140;2024-01-15T05:16:44;10.07;;;6.10;;
21837;SDS011;11081;45.946;6.140;2024-01-15T05:19:14;9.57;;;5.93;;
21837;SDS011;11081;45.946;6.140;2024-01-15T05:21:42;10.57;;;5.90;;
21837;SDS011;11081;45.946;6.140;2024-01-15T05:24:10;10.70;;;6.53;;
21837;SDS011;11081;45.946;6.140;2024-01-15T05:26:38;9.70;;;5.53;;
21837;SDS011;11081;45.946;6.140;2024-01-15T05:29:06;8.50;;;5.60;;
21837;SDS011;11081;45.946;6.140;2024-01-15T05:31:35;8.07;;;5.20;;
21837;SDS011;11081;45.946;6.140;2024-01-15T05:34:05;9.20;;;5.40;;
21837;SDS011;11081;45.946;6.140;2024-01-15T05:36:33;14.03;;;7.23;;
21837;SDS011;11081;45.946;6.140;2024-01-15T05:39:01;10.63;;;7.43;;
21837;SDS011;11081;45.946;6.140;2024-01-15T05:41:29;13.90;;;8.90;;
21837;SDS011;11081;45.946;6.140;2024-01-15T05:43:57;14.70;;;9.10;;
21837;SDS011;11081;45.946;6.140;2024-01-15T05:46:25;15.80;;;9.83;;
21837;SDS011;11081;45.946;6.140;2024-01-15T05:48:53;19.63;;;10.83;;
21837;SDS011;11081;45.946;6.140;2024-01-15T05:51:22;15.47;;;10.63;;
21837;SDS011;11081;45.946;6.140;2024-01-15T05:53:50;16.77;;;11.23;;
21837;SDS011;11081;45.946;6.140;2024-01-15T05:56:18;14.87;;;10.23;;
21837;SDS011;11081;45.946;6.140;2024-01-15T05:58:46;17.37;;;11.17;;
21837;SDS011;11081;45.946;6.140;2024-01-15T06:01:14;16.23;;;11.27;;
21837;SDS011;11081;45.946;6.140;2024-01-15T06:03:42;15.13;;;10.00;;
21837;SDS011;11081;45.946;6.140;2024-01-15T06:06:10;17.53;;;11.50;;
21837;SDS011;11081;45.946;6.140;2024-01-15T06:08:40;16.13;;;10.53;;
21837;SDS011;11081;45.946;6.140;2024-01-15T06:11:07;19.07;;;11.90;;
21837;SDS011;11081;45.946;6.140;2024-01-15T06:13:35;19.17;;;11.67;;
21837;SDS011;11081;45.946;6.140;2024-01-15T06:16:07;18.70;;;12.50;;
21837;SDS011;11081;45.946;6.140;2024-01-15T06:18:41;21.07;;;12.40;;
21837;SDS011;11081;45.946;6.140;2024-01-15T06:21:09;20.30;;;12.13;;
21837;SDS011;11081;45.946;6.140;2024-01-15T06:23:40;18.93;;;11.83;;
21837;SDS011;11081;45.946;6.140;2024-01-15T06:26:08;17.50;;;11.23;;
21837;SDS011;11081;45.946;6.140;2024-01-15T06:28:38;17.20;;;11.33;;
21837;SDS011;11081;45.946;6.140;2024-01-15T06:31:06;17.63;;;10.77;;
21837;SDS011;11081;45.946;6.140;2024-01-15T06:33:34;19.40;;;11.43;;
21837;SDS011;11081;45.946;6.140;2024-01-15T06:36:03;18.87;;;11.53;;
21837;SDS011;11081;45.946;6.140;2024-01-15T06:38:31;16.10;;;10.40;;
21837;SDS011;11081;45.946;6.140;2024-01-15T06:41:01;18.00;;;11.37;;
21837;SDS011;11081;45.946;6.140;2024-01-15T06:43:29;20.77;;;12.37;;
21837;SDS011;11081;45.946;6.140;2024-01-15T06:45:57;19.27;;;12.47;;
21837;SDS011;11081;45.946;6.140;2024-01-15T06:48:27;18.30;;;11.43;;
21837;SDS011;11081;45.946;6.140;2024-01-15T06:50:55;17.10;;;10.90;;
21837;SDS011;11081;45.946;6.140;2024-01-15T06:53:23;17.27;;;11.37;;
21837;SDS011;11081;45.946;6.140;2024-01-15T06:55:51;19.20;;;11.97;;
21837;SDS011;11081;45.946;6.140;2024-01-15T06:58:20;15.87;;;10.67;;
21837;SDS011;11081;45.946;6.140;2024-01-15T07:00:48;18.63;;;11.77;;
21837;SDS011;11081;45.946;6.140;2024-01-15T07:03:16;17.73;;;11.17;;
21837;SDS011;11081;45.946;6.140;2024-01-15T07:05:45;17.57;;;11.23;;
21837;SDS011;11081;45.946;6.140;2024-01-15T07:08:13;16.67;;;11.07;;
21837;SDS011;11081;45.946;6.140;2024-01-15T07:10:41;20.67;;;11.60;;
21837;SDS011;11081;45.946;6.140;2024-01-15T07:13:09;19.10;;;11.57;;
21837;SDS011;11081;45.946;6.140;2024-01-15T07:15:38;22.40;;;11.00;;
21837;SDS011;11081;45.946;6.140;2024-01-15T07:18:06;16.70;;;11.17;;
21837;SDS011;11081;45.946;6.140;2024-01-15T07:20:36;18.93;;;12.23;;
21837;SDS011;11081;45.946;6.140;2024-01-15T07:23:04;19.07;;;11.87;;
21837;SDS011;11081;45.946;6.140;2024-01-15T07:25:33;17.20;;;11.27;;
21837;SDS011;11081;45.946;6.140;2024-01-15T07:28:01;21.63;;;12.83;;
21837;SDS011;11081;45.946;6.140;2024-01-15T07:30:30;18.37;;;12.67;;
21837;SDS011;11081;45.946;6.140;2024-01-15T07:32:59;22.10;;;13.47;;
21837;SDS011;11081;45.946;6.140;2024-01-15T07:35:27;23.57;;;14.03;;
21837;SDS011;11081;45.946;6.140;2024-01-15T07:37:55;31.13;;;16.50;;
21837;SDS011;11081;45.946;6.140;2024-01-15T07:40:23;23.17;;;14.87;;
21837;SDS011;11081;45.946;6.140;2024-01-15T07:42:52;24.57;;;14.70;;
21837;SDS011;11081;45.946;6.140;2024-01-15T07:45:20;25.20;;;15.17;;
21837;SDS011;11081;45.946;6.140;2024-01-15T07:47:48;22.37;;;14.13;;
21837;SDS011;11081;45.946;6.140;2024-01-15T07:50:18;20.63;;;13.80;;
21837;SDS011;11081;45.946;6.140;2024-01-15T07:52:46;23.97;;;13.43;;
21837;SDS011;11081;45.946;6.140;2024-01-15T07:55:15;16.60;;;10.20;;
21837;SDS011;11081;45.946;6.140;2024-01-15T07:57:43;17.60;;;10.37;;
21837;SDS011;11081;45.946;6.140;2024-01-15T08:00:21;15.40;;;9.50;;
21837;SDS011;11081;45.946;6.140;2024-01-15T08:02:49;12.87;;;7.60;;
21837;SDS011;11081;45.946;6.140;2024-01-15T08:05:18;14.83;;;7.80;;
21837;SDS011;11081;45.946;6.140;2024-01-15T08:07:47;11.27;;;7.87;;
21837;SDS011;11081;45.946;6.140;2024-01-15T08:10:15;14.07;;;7.83;;
21837;SDS011;11081;45.946;6.140;2024-01-15T08:12:43;9.60;;;6.73;;
21837;SDS011;11081;45.946;6.140;2024-01-15T08:15:11;13.00;;;6.90;;
21837;SDS011;11081;45.946;6.140;2024-01-15T08:17:39;14.03;;;6.93;;
21837;SDS011;11081;45.946;6.140;2024-01-15T08:20:07;10.07;;;6.83;;
21837;SDS011;11081;45.946;6.140;2024-01-15T08:22:39;13.87;;;7.83;;
21837;SDS011;11081;45.946;6.140;2024-01-15T08:25:07;10.73;;;7.37;;
21837;SDS011;11081;45.946;6.140;2024-01-15T08:27:37;13.77;;;7.67;;
21837;SDS011;11081;45.946;6.140;2024-01-15T08:30:05;12.33;;;7.67;;
21837;SDS011;11081;45.946;6.140;2024-01-15T08:32:34;12.20;;;7.87;;
21837;SDS011;11081;45.946;6.140;2024-01-15T08:35:07;13.93;;;7.27;;
21837;SDS011;11081;45.946;6.140;2024-01-15T08:37:35;11.37;;;7.20;;
21837;SDS011;11081;45.946;6.140;2024-01-15T08:40:06;10.20;;;6.90;;
21837;SDS011;11081;45.946;6.140;2024-01-15T08:42:34;11.60;;;6.57;;
21837;SDS011;11081;45.946;6.140;2024-01-15T08:45:03;11.40;;;6.57;;
21837;SDS011;11081;45.946;6.140;2024-01-15T08:47:31;11.93;;;7.13;;
21837;SDS011;11081;45.946;6.140;2024-01-15T08:49:59;12.37;;;6.80;;
21837;SDS011;11081;45.946;6.140;2024-01-15T08:52:28;14.67;;;7.73;;
21837;SDS011;11081;45.946;6.140;2024-01-15T08:54:56;15.07;;;9.20;;
21837;SDS011;11081;45.946;6.140;2024-01-15T08:57:25;17.30;;;9.00;;
21837;SDS011;11081;45.946;6.140;2024-01-15T08:59:53;13.50;;;7.70;;
21837;SDS011;11081;45.946;6.140;2024-01-15T09:02:21;12.07;;;8.27;;
21837;SDS011;11081;45.946;6.140;2024-01-15T09:04:49;12.13;;;7.50;;
21837;SDS011;11081;45.946;6.140;2024-01-15T09:07:18;11.13;;;6.63;;
21837;SDS011;11081;45.946;6.140;2024-01-15T09:09:46;10.87;;;6.83;;
21837;SDS011;11081;45.946;6.140;2024-01-15T09:12:14;11.20;;;7.23;;
21837;SDS011;11081;45.946;6.140;2024-01-15T09:14:46;10.53;;;6.90;;
21837;SDS011;11081;45.946;6.140;2024-01-15T09:17:14;13.23;;;6.90;;
21837;SDS011;11081;45.946;6.140;2024-01-15T09:19:42;11.80;;;6.73;;
21837;SDS011;11081;45.946;6.140;2024-01-15T09:22:10;11.33;;;7.17;;
21837;SDS011;11081;45.946;6.140;2024-01-15T09:24:40;11.63;;;6.77;;
21837;SDS011;11081;45.946;6.140;2024-01-15T09:27:09;14.53;;;7.13;;
21837;SDS011;11081;45.946;6.140;2024-01-15T09:29:37;11.63;;;7.03;;
21837;SDS011;11081;45.946;6.140;2024-01-15T09:32:07;12.17;;;6.93;;
21837;SDS011;11081;45.946;6.140;2024-01-15T09:34:36;12.83;;;6.40;;
21837;SDS011;11081;45.946;6.140;2024-01-15T09:37:04;11.63;;;6.63;;
21837;SDS011;11081;45.946;6.140;2024-01-15T09:39:32;12.87;;;7.17;;
21837;SDS011;11081;45.946;6.140;2024-01-15T09:42:00;9.03;;;5.50;;
21837;SDS011;11081;45.946;6.140;2024-01-15T09:44:29;10.33;;;6.33;;
21837;SDS011;11081;45.946;6.140;2024-01-15T09:46:58;8.67;;;6.07;;
21837;SDS011;11081;45.946;6.140;2024-01-15T09:49:27;11.20;;;7.43;;
21837;SDS011;11081;45.946;6.140;2024-01-15T09:51:56;11.60;;;7.60;;
21837;SDS011;11081;45.946;6.140;2024-01-15T09:54:37;12.60;;;7.60;;
21837;SDS011;11081;45.946;6.140;2024-01-15T09:57:05;12.00;;;7.57;;
21837;SDS011;11081;45.946;6.140;2024-01-15T09:59:34;11.77;;;7.20;;
21837;SDS011;11081;45.946;6.140;2024-01-15T10:02:04;11.03;;;6.17;;
21837;SDS011;11081;45.946;6.140;2024-01-15T10:04:35;9.10;;;5.83;;
21837;SDS011;11081;45.946;6.140;2024-01-15T10:07:03;11.63;;;6.70;;
21837;SDS011;11081;45.946;6.140;2024-01-15T10:09:32;10.93;;;6.00;;
21837;SDS011;11081;45.946;6.140;2024-01-15T10:12:00;8.13;;;5.17;;
21837;SDS011;11081;45.946;6.140;2024-01-15T10:14:29;8.40;;;5.30;;
21837;SDS011;11081;45.946;6.140;2024-01-15T10:16:59;7.73;;;4.73;;
21837;SDS011;11081;45.946;6.140;2024-01-15T10:19:27;7.50;;;4.77;;
21837;SDS011;11081;45.946;6.140;2024-01-15T10:21:57;6.67;;;4.77;;
21837;SDS011;11081;45.946;6.140;2024-01-15T10:24:25;8.30;;;4.27;;
21837;SDS011;11081;45.946;6.140;2024-01-15T10:26:54;7.47;;;4.80;;
21837;SDS011;11081;45.946;6.140;2024-01-15T10:29:33;7.40;;;4.30;;
21837;SDS011;11081;45.946;6.140;2024-01-15T10:32:01;7.57;;;3.70;;
21837;SDS011;11081;45.946;6.140;2024-01-15T10:34:30;5.07;;;3.77;;
21837;SDS011;11081;45.946;6.140;2024-01-15T10:36:59;6.43;;;4.30;;
21837;SDS011;11081;45.946;6.140;2024-01-15T10:39:29;7.63;;;4.40;;
21837;SDS011;11081;45.946;6.140;2024-01-15T10:41:57;6.93;;;4.60;;
21837;SDS011;11081;45.946;6.140;2024-01-15T10:44:25;6.73;;;3.33;;
21837;SDS011;11081;45.946;6.140;2024-01-15T10:46:53;4.50;;;3.30;;
21837;SDS011;11081;45.946;6.140;2024-01-15T10:49:23;4.93;;;3.30;;
21837;SDS011;11081;45.946;6.140;2024-01-15T10:51:59;4.73;;;2.77;;
21837;SDS011;11081;45.946;6.140;2024-01-15T10:54:28;3.77;;;2.80;;
21837;SDS011;11081;45.946;6.140;2024-01-15T10:56:57;5.73;;;2.93;;
21837;SDS011;11081;45.946;6.140;2024-01-15T10:59:25;6.80;;;2.83;;
21837;SDS011;11081;45.946;6.140;2024-01-15T11:01:53;4.60;;;3.00;;
21837;SDS011;11081;45.946;6.140;2024-01-15T11:04:22;6.00;;;3.00;;
21837;SDS011;11081;45.946;6.140;2024-01-15T11:06:53;7.00;;;3.50;;
21837;SDS011;11081;45.946;6.140;2024-01-15T11:09:25;5.63;;;3.13;;
21837;SDS011;11081;45.946;6.140;2024-01-15T11:12:05;5.40;;;3.43;;
21837;SDS011;11081;45.946;6.140;2024-01-15T11:14:35;9.63;;;3.07;;
21837;SDS011;11081;45.946;6.140;2024-01-15T11:17:06;4.80;;;3.30;;
21837;SDS011;11081;45.946;6.140;2024-01-15T11:19:37;5.97;;;2.83;;
21837;SDS011;11081;45.946;6.140;2024-01-15T11:22:07;6.10;;;2.97;;
21837;SDS011;11081;45.946;6.140;2024-01-15T11:24:38;5.13;;;3.40;;
21837;SDS011;11081;45.946;6.140;2024-01-15T11:27:07;5.87;;;3.07;;
21837;SDS011;11081;45.946;6.140;2024-01-15T11:29:36;6.80;;;4.10;;
21837;SDS011;11081;45.946;6.140;2024-01-15T11:32:05;9.23;;;3.63;;
21837;SDS011;11081;45.946;6.140;2024-01-15T11:34:51;8.57;;;3.70;;
21837;SDS011;11081;45.946;6.140;2024-01-15T11:37:26;7.23;;;3.87;;
21837;SDS011;11081;45.946;6.140;2024-01-15T11:39:56;10.10;;;4.20;;
21837;SDS011;11081;45.946;6.140;2024-01-15T11:42:30;8.70;;;4.00;;
21837;SDS011;11081;45.946;6.140;2024-01-15T11:44:58;7.87;;;4.07;;
21837;SDS011;11081;45.946;6.140;2024-01-15T11:47:46;7.63;;;4.27;;
21837;SDS011;11081;45.946;6.140;2024-01-15T11:50:36;6.93;;;4.67;;
21837;SDS011;11081;45.946;6.140;2024-01-15T11:53:12;11.63;;;6.17;;
21837;SDS011;11081;45.946;6.140;2024-01-15T11:55:46;9.50;;;5.67;;
21837;SDS011;11081;45.946;6.140;2024-01-15T11:58:15;12.73;;;5.80;;
21837;SDS011;11081;45.946;6.140;2024-01-15T12:00:44;9.80;;;5.20;;
21837;SDS011;11081;45.946;6.140;2024-01-15T12:03:12;11.30;;;5.97;;
21837;SDS011;11081;45.946;6.140;2024-01-15T12:05:41;11.53;;;7.13;;
21837;SDS011;11081;45.946;6.140;2024-01-15T12:08:09;12.10;;;7.47;;
21837;SDS011;11081;45.946;6.140;2024-01-15T12:10:38;11.43;;;6.33;;
21837;SDS011;11081;45.946;6.140;2024-01-15T12:13:11;12.47;;;7.03;;
21837;SDS011;11081;45.946;6.140;2024-01-15T12:15:40;14.73;;;8.03;;
21837;SDS011;11081;45.946;6.140;2024-01-15T12:18:10;12.87;;;6.90;;
21837;SDS011;11081;45.946;6.140;2024-01-15T12:20:39;16.30;;;9.57;;
21837;SDS011;11081;45.946;6.140;2024-01-15T12:23:09;16.23;;;10.73;;
21837;SDS011;11081;45.946;6.140;2024-01-15T12:25:37;14.70;;;9.83;;
21837;SDS011;11081;45.946;6.140;2024-01-15T12:28:06;21.33;;;12.63;;
21837;SDS011;11081;45.946;6.140;2024-01-15T12:30:35;17.93;;;11.83;;
21837;SDS011;11081;45.946;6.140;2024-01-15T12:33:05;21.20;;;11.90;;
21837;SDS011;11081;45.946;6.140;2024-01-15T12:35:35;19.13;;;11.40;;
21837;SDS011;11081;45.946;6.140;2024-01-15T12:38:04;17.57;;;11.07;;
21837;SDS011;11081;45.946;6.140;2024-01-15T12:40:32;19.27;;;11.70;;
21837;SDS011;11081;45.946;6.140;2024-01-15T12:43:03;18.57;;;11.40;;
21837;SDS011;11081;45.946;6.140;2024-01-15T12:45:33;16.83;;;10.63;;
21837;SDS011;11081;45.946;6.140;2024-01-15T12:48:04;20.17;;;11.77;;
21837;SDS011;11081;45.946;6.140;2024-01-15T12:50:33;16.47;;;9.93;;
21837;SDS011;11081;45.946;6.140;2024-01-15T12:53:01;15.23;;;10.33;;
21837;SDS011;11081;45.946;6.140;2024-01-15T12:55:30;15.70;;;10.03;;
21837;SDS011;11081;45.946;6.140;2024-01-15T12:57:57;16.80;;;10.90;;
21837;SDS011;11081;45.946;6.140;2024-01-15T13:00:25;18.50;;;11.63;;
21837;SDS011;11081;45.946;6.140;2024-01-15T13:02:53;19.40;;;11.87;;
21837;SDS011;11081;45.946;6.140;2024-01-15T13:05:25;26.40;;;12.77;;
21837;SDS011;11081;45.946;6.140;2024-01-15T13:07:55;23.80;;;13.40;;
21837;SDS011;11081;45.946;6.140;2024-01-15T13:10:23;22.30;;;12.27;;
21837;SDS011;11081;45.946;6.140;2024-01-15T13:12:52;24.30;;;13.70;;
21837;SDS011;11081;45.946;6.140;2024-01-15T13:15:20;24.20;;;13.27;;
21837;SDS011;11081;45.946;6.140;2024-01-15T13:17:48;21.90;;;13.27;;
21837;SDS011;11081;45.946;6.140;2024-01-15T13:20:16;25.50;;;12.10;;
21837;SDS011;11081;45.946;6.140;2024-01-15T13:22:46;24.57;;;12.83;;
21837;SDS011;11081;45.946;6.140;2024-01-15T13:25:14;20.73;;;12.93;;
21837;SDS011;11081;45.946;6.140;2024-01-15T13:27:42;27.33;;;12.27;;
21837;SDS011;11081;45.946;6.140;2024-01-15T13:30:11;19.60;;;11.87;;
21837;SDS011;11081;45.946;6.140;2024-01-15T13:32:40;23.07;;;12.33;;
21837;SDS011;11081;45.946;6.140;2024-01-15T13:35:08;24.60;;;13.03;;
21837;SDS011;11081;45.946;6.140;2024-01-15T13:37:39;23.10;;;13.60;;
21837;SDS011;11081;45.946;6.140;2024-01-15T13:40:10;22.50;;;13.43;;
21837;SDS011;11081;45.946;6.140;2024-01-15T13:42:44;20.70;;;12.67;;
21837;SDS011;11081;45.946;6.140;2024-01-15T13:45:12;19.03;;;12.63;;
21837;SDS011;11081;45.946;6.140;2024-01-15T13:47:41;20.90;;;12.53;;
21837;SDS011;11081;45.946;6.140;2024-01-15T13:50:10;18.33;;;11.00;;
21837;SDS011;11081;45.946;6.140;2024-01-15T13:52:38;17.43;;;10.37;;
21837;SDS011;11081;45.946;6.140;2024-01-15T13:55:06;20.70;;;10.20;;
21837;SDS011;11081;45.946;6.140;2024-01-15T13:57:36;20.33;;;10.67;;
21837;SDS011;11081;45.946;6.140;2024-01-15T14:00:05;21.03;;;10.27;;
21837;SDS011;11081;45.946;6.140;2024-01-15T14:02:39;15.13;;;10.30;;
21837;SDS011;11081;45.946;6.140;2024-01-15T14:05:07;14.97;;;9.70;;
21837;SDS011;11081;45.946;6.140;2024-01-15T14:07:35;12.27;;;7.00;;
21837;SDS011;11081;45.946;6.140;2024-01-15T14:10:03;11.77;;;6.70;;
21837;SDS011;11081;45.946;6.140;2024-01-15T14:12:34;9.60;;;5.83;;
21837;SDS011;11081;45.946;6.140;2024-01-15T14:15:05;11.40;;;4.50;;
21837;SDS011;11081;45.946;6.140;2024-01-15T14:17:33;8.37;;;5.50;;
21837;SDS011;11081;45.946;6.140;2024-01-15T14:20:01;10.53;;;5.33;;
21837;SDS011;11081;45.946;6.140;2024-01-15T14:22:31;7.53;;;4.90;;
21837;SDS011;11081;45.946;6.140;2024-01-15T14:24:59;11.60;;;6.07;;
21837;SDS011;11081;45.946;6.140;2024-01-15T14:27:28;10.30;;;5.13;;
21837;SDS011;11081;45.946;6.140;2024-01-15T14:29:55;17.23;;;7.50;;
21837;SDS011;11081;45.946;6.140;2024-01-15T14:32:25;13.30;;;7.13;;
21837;SDS011;11081;45.946;6.140;2024-01-15T14:34:53;16.33;;;8.20;;
21837;SDS011;11081;45.946;6.140;2024-01-15T14:37:23;15.97;;;7.67;;
21837;SDS011;11081;45.946;6.140;2024-01-15T14:39:51;10.83;;;6.50;;
21837;SDS011;11081;45.946;6.140;2024-01-15T14:42:19;11.43;;;6.87;;
21837;SDS011;11081;45.946;6.140;2024-01-15T14:44:47;15.43;;;7.20;;